Gaz Venture — 3FLQ4 — position and weather

sailwx.info

Track history (hours):
 
Tides and Currents Weather Stations Pressure Air Temp Water Temp Dewpoint Dewpoint Depression Visibility Wind Speed Wind Dir Waves Ship Positions

Gaz Venture

Last reported at 2015-Apr-25 22:07 UTC. Time now 2015-May-04 07:59 UTC.
Position N 33°13' E 015°27'.
Warning: this ship's position is 8 days out of date.

Length 120 m; draft 6.5 m.

Type: Tanker. MMSI: 356141000.

Date/timePositionNaut miles runAvg speedWind from/ knotsBaromVisibWave heightAir tempDewpointWater temp
2015-Apr-25 22:07N 33°13' E 015°27'814.0
2015-Apr-25 21:32N 33°12' E 015°17'1913.9
2015-Apr-25 20:10N 33°11' E 014°54'813.7
2015-Apr-25 19:33N 33°11' E 014°44'  
2015-Apr-23 01:15N 32°57' E 013°10'0 0.0
2015-Apr-22 15:30N 32°57' E 013°10'0 0.0
2015-Apr-22 14:30N 32°57' E 013°10'  
2015-Apr-18 23:28N 32°57' E 013°12'0 0.0
2015-Apr-18 21:13N 32°57' E 013°12'0 0.0
2015-Apr-18 16:13N 32°57' E 013°12'0 0.1
2015-Apr-18 15:31N 32°57' E 013°12'0 0.0
2015-Apr-18 14:31N 32°57' E 013°12'0 0.0
2015-Apr-18 13:31N 32°57' E 013°12'0 0.0
2015-Apr-18 12:31N 32°57' E 013°12'0 0.0
2015-Apr-18 11:31N 32°57' E 013°12'0 0.0
2015-Apr-18 10:25N 32°57' E 013°12'0 0.0
2015-Apr-18 07:31N 32°57' E 013°12'13511.3
2015-Apr-17 19:33N 34°58' E 014°24'1414.2
2015-Apr-17 18:33N 35°11' E 014°32'1414.4
2015-Apr-17 17:33N 35°24' E 014°39'1514.6
2015-Apr-17 16:33N 35°37' E 014°46'1413.7
2015-Apr-17 15:34N 35°51' E 014°48'2 1.6
2015-Apr-17 14:32N 35°52' E 014°48'0 0.0
2015-Apr-17 13:32N 35°52' E 014°48'0 0.0
2015-Apr-17 12:32N 35°52' E 014°48'0 0.0
2015-Apr-17 11:32N 35°52' E 014°48'0 0.0
2015-Apr-17 10:29N 35°52' E 014°48'0 0.0
2015-Apr-17 09:26N 35°52' E 014°48'0 0.1
2015-Apr-17 04:33N 35°52' E 014°47'1312.8
2015-Apr-17 03:34N 35°39' E 014°49'1 1.4
2015-Apr-17 02:33N 35°38' E 014°50'1 0.6
2015-Apr-17 01:31N 35°38' E 014°50'1 0.8
2015-Apr-17 00:33N 35°37' E 014°50'1 0.8
2015-Apr-16 23:34N 35°36' E 014°49'1 0.8
2015-Apr-16 22:34N 35°35' E 014°49'1 0.8
2015-Apr-16 21:33N 35°35' E 014°49'1 0.9
2015-Apr-16 20:34N 35°34' E 014°48'1 0.8
2015-Apr-16 19:34N 35°33' E 014°48'1 0.5
2015-Apr-16 18:34N 35°33' E 014°47'2 2.1
2015-Apr-16 17:34N 35°32' E 014°50'4 4.1
2015-Apr-16 16:33N 35°34' E 014°55'0 0.3
2015-Apr-16 15:33N 35°34' E 014°55'4 4.1
2015-Apr-16 14:33N 35°38' E 014°54'1 0.7
2015-Apr-16 13:33N 35°37' E 014°54'1 0.7
2015-Apr-16 12:34N 35°36' E 014°55'1 0.6
2015-Apr-16 11:34N 35°36' E 014°55'1 0.5
2015-Apr-16 10:33N 35°35' E 014°55'0 0.4
2015-Apr-16 09:21N 35°35' E 014°55'0 0.3
2015-Apr-16 08:33N 35°35' E 014°55'0 0.2
2015-Apr-16 07:25N 35°35' E 014°55'4 4.9
2015-Apr-16 06:33N 35°32' E 014°51'1413.8
2015-Apr-16 05:33N 35°23' E 014°38'1513.9
2015-Apr-16 04:28N 35°13' E 014°24'1614.5
2015-Apr-16 03:21N 35°03' E 014°08'1514.8
2015-Apr-16 02:19N 34°54' E 013°53'1114.7
2015-Apr-16 01:33N 34°48' E 013°42'1514.7
2015-Apr-16 00:33N 34°39' E 013°28'1414.4
2015-Apr-15 23:33N 34°31' E 013°13'1514.3
2015-Apr-15 22:32N 34°22' E 012°59'  
Track history (hours):
 
Tides and Currents Weather Stations Pressure Air Temp Water Temp Dewpoint Dewpoint Depression Visibility Wind Speed Wind Dir Waves Ship Positions

Gaz Venture

Last reported at 2015-Apr-25 22:07 UTC. Time now 2015-May-04 07:59 UTC.
Position N 33°13' E 015°27'.
Warning: this ship's position is 8 days out of date.

Length 120 m; draft 6.5 m.

Type: Tanker. MMSI: 356141000.

Date/timePositionNaut miles runAvg speedWind from/ knotsBaromVisibWave heightAir tempDewpointWater temp
2015-Apr-25 22:07N 33°13' E 015°27'814.0
2015-Apr-25 21:32N 33°12' E 015°17'1913.9
2015-Apr-25 20:10N 33°11' E 014°54'813.7
2015-Apr-25 19:33N 33°11' E 014°44'  
2015-Apr-23 01:15N 32°57' E 013°10'0 0.0
2015-Apr-22 15:30N 32°57' E 013°10'0 0.0
2015-Apr-22 14:30N 32°57' E 013°10'  
2015-Apr-18 23:28N 32°57' E 013°12'0 0.0
2015-Apr-18 21:13N 32°57' E 013°12'0 0.0
2015-Apr-18 16:13N 32°57' E 013°12'0 0.1
2015-Apr-18 15:31N 32°57' E 013°12'0 0.0
2015-Apr-18 14:31N 32°57' E 013°12'0 0.0
2015-Apr-18 13:31N 32°57' E 013°12'0 0.0
2015-Apr-18 12:31N 32°57' E 013°12'0 0.0
2015-Apr-18 11:31N 32°57' E 013°12'0 0.0
2015-Apr-18 10:25N 32°57' E 013°12'0 0.0
2015-Apr-18 07:31N 32°57' E 013°12'13511.3
2015-Apr-17 19:33N 34°58' E 014°24'1414.2
2015-Apr-17 18:33N 35°11' E 014°32'1414.4
2015-Apr-17 17:33N 35°24' E 014°39'1514.6
2015-Apr-17 16:33N 35°37' E 014°46'1413.7
2015-Apr-17 15:34N 35°51' E 014°48'2 1.6
2015-Apr-17 14:32N 35°52' E 014°48'0 0.0
2015-Apr-17 13:32N 35°52' E 014°48'0 0.0
2015-Apr-17 12:32N 35°52' E 014°48'0 0.0
2015-Apr-17 11:32N 35°52' E 014°48'0 0.0
2015-Apr-17 10:29N 35°52' E 014°48'0 0.0
2015-Apr-17 09:26N 35°52' E 014°48'0 0.1
2015-Apr-17 04:33N 35°52' E 014°47'1312.8
2015-Apr-17 03:34N 35°39' E 014°49'1 1.4
2015-Apr-17 02:33N 35°38' E 014°50'1 0.6
2015-Apr-17 01:31N 35°38' E 014°50'1 0.8
2015-Apr-17 00:33N 35°37' E 014°50'1 0.8
2015-Apr-16 23:34N 35°36' E 014°49'1 0.8
2015-Apr-16 22:34N 35°35' E 014°49'1 0.8
2015-Apr-16 21:33N 35°35' E 014°49'1 0.9
2015-Apr-16 20:34N 35°34' E 014°48'1 0.8
2015-Apr-16 19:34N 35°33' E 014°48'1 0.5
2015-Apr-16 18:34N 35°33' E 014°47'2 2.1
2015-Apr-16 17:34N 35°32' E 014°50'4 4.1
2015-Apr-16 16:33N 35°34' E 014°55'0 0.3
2015-Apr-16 15:33N 35°34' E 014°55'4 4.1
2015-Apr-16 14:33N 35°38' E 014°54'1 0.7
2015-Apr-16 13:33N 35°37' E 014°54'1 0.7
2015-Apr-16 12:34N 35°36' E 014°55'1 0.6
2015-Apr-16 11:34N 35°36' E 014°55'1 0.5
2015-Apr-16 10:33N 35°35' E 014°55'0 0.4
2015-Apr-16 09:21N 35°35' E 014°55'0 0.3
2015-Apr-16 08:33N 35°35' E 014°55'0 0.2
2015-Apr-16 07:25N 35°35' E 014°55'4 4.9
2015-Apr-16 06:33N 35°32' E 014°51'1413.8
2015-Apr-16 05:33N 35°23' E 014°38'1513.9
2015-Apr-16 04:28N 35°13' E 014°24'1614.5
2015-Apr-16 03:21N 35°03' E 014°08'1514.8
2015-Apr-16 02:19N 34°54' E 013°53'1114.7
2015-Apr-16 01:33N 34°48' E 013°42'1514.7
2015-Apr-16 00:33N 34°39' E 013°28'1414.4
2015-Apr-15 23:33N 34°31' E 013°13'1514.3
2015-Apr-15 22:32N 34°22' E 012°59'  

Dump ship's entire track history